sensor_id;sensor_type;location;lat;lon;timestamp;pressure;altitude;pressure_sealevel;temperature;humidity
19761;BME280;10039;42.632;23.408;2023-12-22T00:02:20;93534.88;;;1.36;77.84
19761;BME280;10039;42.632;23.408;2023-12-22T00:04:46;93519.41;;;0.98;78.08
19761;BME280;10039;42.632;23.408;2023-12-22T00:07:12;93527.56;;;1.14;78.77
19761;BME280;10039;42.632;23.408;2023-12-22T00:09:37;93528.28;;;1.18;78.89
19761;BME280;10039;42.632;23.408;2023-12-22T00:12:04;93535.06;;;1.15;79.50
19761;BME280;10039;42.632;23.408;2023-12-22T00:14:30;93508.56;;;0.96;79.63
19761;BME280;10039;42.632;23.408;2023-12-22T00:16:55;93494.72;;;0.92;79.63
19761;BME280;10039;42.632;23.408;2023-12-22T00:19:21;93537.16;;;1.34;79.40
19761;BME280;10039;42.632;23.408;2023-12-22T00:21:49;93519.25;;;1.22;79.70
19761;BME280;10039;42.632;23.408;2023-12-22T00:24:14;93484.84;;;1.10;79.53
19761;BME280;10039;42.632;23.408;2023-12-22T00:26:40;93489.28;;;1.16;79.42
19761;BME280;10039;42.632;23.408;2023-12-22T00:29:06;93497.88;;;1.20;79.73
19761;BME280;10039;42.632;23.408;2023-12-22T00:31:33;93517.63;;;1.39;79.46
19761;BME280;10039;42.632;23.408;2023-12-22T00:34:01;93483.19;;;1.26;79.33
19761;BME280;10039;42.632;23.408;2023-12-22T00:36:27;93465.28;;;1.14;79.41
19761;BME280;10039;42.632;23.408;2023-12-22T00:38:52;93507.34;;;1.55;79.58
19761;BME280;10039;42.632;23.408;2023-12-22T00:41:19;93445.31;;;1.24;79.07
19761;BME280;10039;42.632;23.408;2023-12-22T00:43:49;93459.88;;;1.32;79.26
19761;BME280;10039;42.632;23.408;2023-12-22T00:46:15;93465.63;;;1.57;79.36
19761;BME280;10039;42.632;23.408;2023-12-22T00:48:41;93451.50;;;1.44;79.26
19761;BME280;10039;42.632;23.408;2023-12-22T00:51:07;93442.41;;;1.52;79.24
19761;BME280;10039;42.632;23.408;2023-12-22T00:53:37;93427.09;;;1.43;79.00
19761;BME280;10039;42.632;23.408;2023-12-22T00:56:03;93405.44;;;1.32;79.14
19761;BME280;10039;42.632;23.408;2023-12-22T00:58:31;93488.81;;;1.69;79.40
19761;BME280;10039;42.632;23.408;2023-12-22T01:00:57;93424.38;;;1.54;79.29
19761;BME280;10039;42.632;23.408;2023-12-22T01:03:23;93445.63;;;1.70;79.54
19761;BME280;10039;42.632;23.408;2023-12-22T01:05:55;93457.34;;;1.95;79.00
19761;BME280;10039;42.632;23.408;2023-12-22T01:08:22;93444.09;;;2.02;78.81
19761;BME280;10039;42.632;23.408;2023-12-22T01:10:48;93449.06;;;1.97;78.44
19761;BME280;10039;42.632;23.408;2023-12-22T01:13:14;93449.34;;;2.06;78.66
19761;BME280;10039;42.632;23.408;2023-12-22T01:15:40;93458.81;;;2.00;78.43
19761;BME280;10039;42.632;23.408;2023-12-22T01:18:05;93460.66;;;2.03;77.81
19761;BME280;10039;42.632;23.408;2023-12-22T01:20:31;93428.41;;;1.95;77.65
19761;BME280;10039;42.632;23.408;2023-12-22T01:22:57;93410.03;;;1.62;77.44
19761;BME280;10039;42.632;23.408;2023-12-22T01:25:22;93440.63;;;1.79;77.64
19761;BME280;10039;42.632;23.408;2023-12-22T01:27:48;93399.34;;;1.76;77.78
19761;BME280;10039;42.632;23.408;2023-12-22T01:30:17;93466.72;;;1.96;77.82
19761;BME280;10039;42.632;23.408;2023-12-22T01:32:43;93407.06;;;1.90;77.82
19761;BME280;10039;42.632;23.408;2023-12-22T01:35:09;93408.56;;;1.91;77.17
19761;BME280;10039;42.632;23.408;2023-12-22T01:37:36;93434.25;;;2.10;77.33
19761;BME280;10039;42.632;23.408;2023-12-22T01:40:03;93436.66;;;1.97;77.66
19761;BME280;10039;42.632;23.408;2023-12-22T01:42:29;93371.34;;;1.92;77.53
19761;BME280;10039;42.632;23.408;2023-12-22T01:44:55;93425.31;;;2.04;77.48
19761;BME280;10039;42.632;23.408;2023-12-22T01:47:21;93402.09;;;1.99;77.74
19761;BME280;10039;42.632;23.408;2023-12-22T01:49:47;93389.28;;;2.01;77.78
19761;BME280;10039;42.632;23.408;2023-12-22T01:52:14;93379.47;;;2.05;77.84
19761;BME280;10039;42.632;23.408;2023-12-22T01:54:40;93378.78;;;2.01;77.44
19761;BME280;10039;42.632;23.408;2023-12-22T01:57:06;93412.69;;;2.21;77.66
19761;BME280;10039;42.632;23.408;2023-12-22T01:59:32;93410.75;;;2.25;78.05
19761;BME280;10039;42.632;23.408;2023-12-22T02:02:03;93416.09;;;2.18;77.98
19761;BME280;10039;42.632;23.408;2023-12-22T02:04:30;93379.91;;;2.00;78.20
19761;BME280;10039;42.632;23.408;2023-12-22T02:06:58;93365.84;;;2.10;78.03
19761;BME280;10039;42.632;23.408;2023-12-22T02:09:25;93397.25;;;2.23;77.57
19761;BME280;10039;42.632;23.408;2023-12-22T02:11:51;93374.00;;;2.18;77.57
19761;BME280;10039;42.632;23.408;2023-12-22T02:14:16;93384.59;;;2.15;77.66
19761;BME280;10039;42.632;23.408;2023-12-22T02:16:53;93397.34;;;2.17;77.92
19761;BME280;10039;42.632;23.408;2023-12-22T02:22:05;93371.00;;;2.20;77.76
19761;BME280;10039;42.632;23.408;2023-12-22T02:24:32;93405.56;;;2.18;77.90
19761;BME280;10039;42.632;23.408;2023-12-22T02:27:04;93414.34;;;2.38;77.94
19761;BME280;10039;42.632;23.408;2023-12-22T02:29:36;93373.75;;;2.10;78.21
19761;BME280;10039;42.632;23.408;2023-12-22T02:32:07;93356.03;;;2.14;77.99
19761;BME280;10039;42.632;23.408;2023-12-22T02:34:37;93397.84;;;2.34;77.50
19761;BME280;10039;42.632;23.408;2023-12-22T02:37:10;93394.75;;;2.39;77.89
19761;BME280;10039;42.632;23.408;2023-12-22T02:39:36;93402.03;;;2.58;77.20
19761;BME280;10039;42.632;23.408;2023-12-22T02:42:03;93342.09;;;2.17;77.18
19761;BME280;10039;42.632;23.408;2023-12-22T02:44:31;93347.06;;;2.11;77.12
19761;BME280;10039;42.632;23.408;2023-12-22T02:46:57;93369.69;;;2.31;77.34
19761;BME280;10039;42.632;23.408;2023-12-22T02:49:22;93350.59;;;2.27;77.47
19761;BME280;10039;42.632;23.408;2023-12-22T02:51:48;93370.00;;;2.37;77.13
19761;BME280;10039;42.632;23.408;2023-12-22T02:54:14;93358.56;;;2.20;76.96
19761;BME280;10039;42.632;23.408;2023-12-22T02:56:39;93388.94;;;2.51;77.63
19761;BME280;10039;42.632;23.408;2023-12-22T02:59:08;93354.81;;;2.48;77.18
19761;BME280;10039;42.632;23.408;2023-12-22T03:01:34;93384.84;;;2.50;77.07
19761;BME280;10039;42.632;23.408;2023-12-22T03:04:00;93330.69;;;2.26;77.27
19761;BME280;10039;42.632;23.408;2023-12-22T03:06:26;93345.56;;;2.36;77.10
19761;BME280;10039;42.632;23.408;2023-12-22T03:08:51;93374.22;;;2.57;77.07
19761;BME280;10039;42.632;23.408;2023-12-22T03:11:17;93356.31;;;2.45;76.86
19761;BME280;10039;42.632;23.408;2023-12-22T03:13:42;93368.38;;;2.20;76.86
19761;BME280;10039;42.632;23.408;2023-12-22T03:16:08;93359.06;;;2.12;77.67
19761;BME280;10039;42.632;23.408;2023-12-22T03:18:34;93374.66;;;2.26;78.04
19761;BME280;10039;42.632;23.408;2023-12-22T03:21:00;93347.09;;;2.08;77.67
19761;BME280;10039;42.632;23.408;2023-12-22T03:23:25;93346.31;;;2.11;77.65
19761;BME280;10039;42.632;23.408;2023-12-22T03:25:51;93340.75;;;2.05;76.98
19761;BME280;10039;42.632;23.408;2023-12-22T03:28:16;93383.38;;;2.19;77.53
19761;BME280;10039;42.632;23.408;2023-12-22T03:30:42;93350.41;;;2.12;78.01
19761;BME280;10039;42.632;23.408;2023-12-22T03:33:08;93354.53;;;2.13;76.99
19761;BME280;10039;42.632;23.408;2023-12-22T03:35:33;93343.88;;;1.97;77.07
19761;BME280;10039;42.632;23.408;2023-12-22T03:37:59;93349.66;;;1.85;77.31
19761;BME280;10039;42.632;23.408;2023-12-22T03:40:25;93337.75;;;2.07;77.27
19761;BME280;10039;42.632;23.408;2023-12-22T03:42:50;93365.91;;;2.06;77.59
19761;BME280;10039;42.632;23.408;2023-12-22T03:45:16;93336.84;;;1.90;77.96
19761;BME280;10039;42.632;23.408;2023-12-22T03:47:41;93314.34;;;1.86;77.77
19761;BME280;10039;42.632;23.408;2023-12-22T03:50:07;93357.31;;;2.02;78.02
19761;BME280;10039;42.632;23.408;2023-12-22T03:52:33;93308.34;;;1.85;78.42
19761;BME280;10039;42.632;23.408;2023-12-22T03:54:59;93318.44;;;1.90;78.75
19761;BME280;10039;42.632;23.408;2023-12-22T03:57:24;93384.38;;;2.29;78.86
19761;BME280;10039;42.632;23.408;2023-12-22T03:59:50;93331.97;;;2.15;78.65
19761;BME280;10039;42.632;23.408;2023-12-22T04:02:16;93345.22;;;2.34;78.34
19761;BME280;10039;42.632;23.408;2023-12-22T04:04:41;93347.97;;;2.50;78.38
19761;BME280;10039;42.632;23.408;2023-12-22T04:07:07;93372.81;;;2.49;78.12
19761;BME280;10039;42.632;23.408;2023-12-22T04:09:32;93323.47;;;2.04;78.66
19761;BME280;10039;42.632;23.408;2023-12-22T04:11:58;93368.13;;;2.37;79.10
19761;BME280;10039;42.632;23.408;2023-12-22T04:14:24;93347.88;;;2.34;78.83
19761;BME280;10039;42.632;23.408;2023-12-22T04:16:50;93316.81;;;2.22;78.31
19761;BME280;10039;42.632;23.408;2023-12-22T04:19:18;93363.69;;;2.57;78.55
19761;BME280;10039;42.632;23.408;2023-12-22T04:21:43;93335.88;;;2.56;78.37
19761;BME280;10039;42.632;23.408;2023-12-22T04:24:09;93351.22;;;2.61;78.09
19761;BME280;10039;42.632;23.408;2023-12-22T04:26:35;93338.94;;;2.51;77.87
19761;BME280;10039;42.632;23.408;2023-12-22T04:29:01;93371.59;;;2.80;77.82
19761;BME280;10039;42.632;23.408;2023-12-22T04:31:26;93343.13;;;2.72;77.93
19761;BME280;10039;42.632;23.408;2023-12-22T04:33:52;93320.13;;;2.53;77.96
19761;BME280;10039;42.632;23.408;2023-12-22T04:36:17;93342.00;;;2.73;77.62
19761;BME280;10039;42.632;23.408;2023-12-22T04:38:46;93352.47;;;2.76;77.66
19761;BME280;10039;42.632;23.408;2023-12-22T04:41:11;93344.34;;;2.90;77.79
19761;BME280;10039;42.632;23.408;2023-12-22T04:43:37;93329.22;;;2.71;77.70
19761;BME280;10039;42.632;23.408;2023-12-22T04:46:03;93320.13;;;2.76;78.21
19761;BME280;10039;42.632;23.408;2023-12-22T04:48:29;93310.16;;;2.87;78.42
19761;BME280;10039;42.632;23.408;2023-12-22T04:50:54;93322.69;;;2.79;78.08
19761;BME280;10039;42.632;23.408;2023-12-22T04:53:20;93342.03;;;2.92;78.61
19761;BME280;10039;42.632;23.408;2023-12-22T04:55:46;93322.59;;;2.86;78.70
19761;BME280;10039;42.632;23.408;2023-12-22T04:58:11;93315.94;;;2.78;79.20
19761;BME280;10039;42.632;23.408;2023-12-22T05:00:37;93302.56;;;2.69;79.54
19761;BME280;10039;42.632;23.408;2023-12-22T05:03:03;93347.25;;;2.96;79.45
19761;BME280;10039;42.632;23.408;2023-12-22T05:05:28;93337.00;;;3.01;79.33
19761;BME280;10039;42.632;23.408;2023-12-22T05:07:54;93327.47;;;3.07;79.12
19761;BME280;10039;42.632;23.408;2023-12-22T05:10:20;93318.88;;;3.03;79.24
19761;BME280;10039;42.632;23.408;2023-12-22T05:12:49;93306.31;;;2.91;78.92
19761;BME280;10039;42.632;23.408;2023-12-22T05:15:17;93286.28;;;2.74;78.64
19761;BME280;10039;42.632;23.408;2023-12-22T05:17:42;93294.97;;;2.94;79.04
19761;BME280;10039;42.632;23.408;2023-12-22T05:20:09;93280.44;;;2.86;79.09
19761;BME280;10039;42.632;23.408;2023-12-22T05:22:36;93301.84;;;2.88;79.17
19761;BME280;10039;42.632;23.408;2023-12-22T05:25:02;93322.34;;;3.00;79.44
19761;BME280;10039;42.632;23.408;2023-12-22T05:27:28;93308.69;;;3.05;79.43
19761;BME280;10039;42.632;23.408;2023-12-22T05:29:54;93320.78;;;3.03;78.84
19761;BME280;10039;42.632;23.408;2023-12-22T05:32:19;93309.78;;;3.08;79.06
19761;BME280;10039;42.632;23.408;2023-12-22T05:34:45;93324.38;;;3.12;79.14
19761;BME280;10039;42.632;23.408;2023-12-22T05:37:10;93336.34;;;3.17;79.05
19761;BME280;10039;42.632;23.408;2023-12-22T05:39:37;93280.25;;;2.97;78.67
19761;BME280;10039;42.632;23.408;2023-12-22T05:42:02;93312.34;;;3.11;78.23
19761;BME280;10039;42.632;23.408;2023-12-22T05:44:28;93299.03;;;2.99;78.72
19761;BME280;10039;42.632;23.408;2023-12-22T05:46:56;93330.69;;;3.18;78.80
19761;BME280;10039;42.632;23.408;2023-12-22T05:49:22;93298.31;;;2.98;78.64
19761;BME280;10039;42.632;23.408;2023-12-22T05:51:49;93311.13;;;2.96;79.11
19761;BME280;10039;42.632;23.408;2023-12-22T05:54:15;93311.84;;;2.97;79.91
19761;BME280;10039;42.632;23.408;2023-12-22T05:56:42;93309.63;;;2.95;80.04
19761;BME280;10039;42.632;23.408;2023-12-22T05:59:07;93311.63;;;3.11;79.85
19761;BME280;10039;42.632;23.408;2023-12-22T06:01:33;93318.53;;;3.24;80.08
19761;BME280;10039;42.632;23.408;2023-12-22T06:03:58;93334.22;;;3.31;80.05
19761;BME280;10039;42.632;23.408;2023-12-22T06:06:27;93319.78;;;3.16;79.81
19761;BME280;10039;42.632;23.408;2023-12-22T06:08:53;93305.34;;;3.24;79.58
19761;BME280;10039;42.632;23.408;2023-12-22T06:11:18;93313.47;;;3.33;79.24
19761;BME280;10039;42.632;23.408;2023-12-22T06:13:44;93305.00;;;3.22;78.78
19761;BME280;10039;42.632;23.408;2023-12-22T06:16:13;93331.25;;;3.48;79.22
19761;BME280;10039;42.632;23.408;2023-12-22T06:18:40;93312.69;;;3.13;78.97
19761;BME280;10039;42.632;23.408;2023-12-22T06:21:06;93344.69;;;3.54;79.12
19761;BME280;10039;42.632;23.408;2023-12-22T06:23:32;93322.72;;;3.41;78.68
19761;BME280;10039;42.632;23.408;2023-12-22T06:25:57;93328.75;;;3.41;78.62
19761;BME280;10039;42.632;23.408;2023-12-22T06:28:23;93330.97;;;3.62;78.12
19761;BME280;10039;42.632;23.408;2023-12-22T06:30:48;93304.53;;;3.46;77.78
19761;BME280;10039;42.632;23.408;2023-12-22T06:33:14;93322.84;;;3.53;77.37
19761;BME280;10039;42.632;23.408;2023-12-22T06:35:40;93346.72;;;3.66;77.88
19761;BME280;10039;42.632;23.408;2023-12-22T06:38:10;93328.53;;;3.52;78.28
19761;BME280;10039;42.632;23.408;2023-12-22T06:40:37;93322.84;;;3.53;77.77
19761;BME280;10039;42.632;23.408;2023-12-22T06:43:03;93333.13;;;3.48;78.41
19761;BME280;10039;42.632;23.408;2023-12-22T06:45:29;93318.78;;;3.49;78.72
19761;BME280;10039;42.632;23.408;2023-12-22T06:47:55;93353.63;;;3.60;78.79
19761;BME280;10039;42.632;23.408;2023-12-22T06:50:20;93320.22;;;3.34;79.08
19761;BME280;10039;42.632;23.408;2023-12-22T06:52:46;93336.69;;;3.38;78.71
19761;BME280;10039;42.632;23.408;2023-12-22T06:55:11;93357.00;;;3.60;78.69
19761;BME280;10039;42.632;23.408;2023-12-22T06:57:37;93308.19;;;3.33;78.58
19761;BME280;10039;42.632;23.408;2023-12-22T07:00:03;93355.97;;;3.74;78.74
19761;BME280;10039;42.632;23.408;2023-12-22T07:02:29;93339.88;;;3.68;78.17
19761;BME280;10039;42.632;23.408;2023-12-22T07:07:46;93348.13;;;3.70;78.16
19761;BME280;10039;42.632;23.408;2023-12-22T07:10:11;93327.94;;;3.64;78.17
19761;BME280;10039;42.632;23.408;2023-12-22T07:12:38;93342.19;;;3.66;78.51
19761;BME280;10039;42.632;23.408;2023-12-22T07:15:05;93350.03;;;3.70;79.00
19761;BME280;10039;42.632;23.408;2023-12-22T07:17:32;93338.31;;;3.71;78.55
19761;BME280;10039;42.632;23.408;2023-12-22T07:19:58;93343.06;;;3.60;79.16
19761;BME280;10039;42.632;23.408;2023-12-22T07:22:23;93359.03;;;3.92;79.12
19761;BME280;10039;42.632;23.408;2023-12-22T07:24:49;93339.63;;;3.63;79.53
19761;BME280;10039;42.632;23.408;2023-12-22T07:27:17;93371.06;;;3.93;79.23
19761;BME280;10039;42.632;23.408;2023-12-22T07:29:42;93336.69;;;3.77;79.20
19761;BME280;10039;42.632;23.408;2023-12-22T07:32:08;93349.94;;;3.93;79.00
19761;BME280;10039;42.632;23.408;2023-12-22T07:34:33;93350.09;;;3.86;78.93
19761;BME280;10039;42.632;23.408;2023-12-22T07:36:59;93339.78;;;3.91;78.81
19761;BME280;10039;42.632;23.408;2023-12-22T07:39:24;93329.47;;;3.61;79.65
19761;BME280;10039;42.632;23.408;2023-12-22T07:41:50;93379.03;;;3.70;80.81
19761;BME280;10039;42.632;23.408;2023-12-22T07:44:16;93344.78;;;3.50;81.90
19761;BME280;10039;42.632;23.408;2023-12-22T07:46:41;93358.56;;;3.58;82.25
19761;BME280;10039;42.632;23.408;2023-12-22T07:49:08;93352.19;;;3.55;82.30
19761;BME280;10039;42.632;23.408;2023-12-22T07:51:33;93366.13;;;3.75;81.73
19761;BME280;10039;42.632;23.408;2023-12-22T07:53:59;93379.72;;;3.74;81.59
19761;BME280;10039;42.632;23.408;2023-12-22T07:56:25;93396.97;;;3.98;81.25
19761;BME280;10039;42.632;23.408;2023-12-22T07:58:50;93375.72;;;3.85;81.46
19761;BME280;10039;42.632;23.408;2023-12-22T08:01:17;93342.78;;;3.74;80.78
19761;BME280;10039;42.632;23.408;2023-12-22T08:03:45;93412.38;;;3.99;81.69
19761;BME280;10039;42.632;23.408;2023-12-22T08:06:11;93405.41;;;4.09;81.58
19761;BME280;10039;42.632;23.408;2023-12-22T08:08:39;93392.22;;;4.09;80.86
19761;BME280;10039;42.632;23.408;2023-12-22T08:11:04;93411.81;;;4.27;80.22
19761;BME280;10039;42.632;23.408;2023-12-22T08:13:30;93382.75;;;4.11;79.91
19761;BME280;10039;42.632;23.408;2023-12-22T08:15:56;93395.38;;;4.20;79.57
19761;BME280;10039;42.632;23.408;2023-12-22T08:18:21;93406.00;;;4.16;79.96
19761;BME280;10039;42.632;23.408;2023-12-22T08:20:46;93396.13;;;4.20;79.32
19761;BME280;10039;42.632;23.408;2023-12-22T08:23:14;93385.31;;;4.31;79.15
19761;BME280;10039;42.632;23.408;2023-12-22T08:25:40;93404.81;;;4.37;79.12
19761;BME280;10039;42.632;23.408;2023-12-22T08:28:07;93439.53;;;4.54;78.94
19761;BME280;10039;42.632;23.408;2023-12-22T08:30:32;93403.16;;;4.27;79.49
19761;BME280;10039;42.632;23.408;2023-12-22T08:32:58;93430.25;;;4.46;80.16
19761;BME280;10039;42.632;23.408;2023-12-22T08:35:24;93410.41;;;4.23;80.05
19761;BME280;10039;42.632;23.408;2023-12-22T08:37:49;93424.06;;;4.53;79.16
19761;BME280;10039;42.632;23.408;2023-12-22T08:40:15;93430.03;;;4.57;78.74
19761;BME280;10039;42.632;23.408;2023-12-22T08:42:41;93443.00;;;4.67;78.62
19761;BME280;10039;42.632;23.408;2023-12-22T08:45:07;93438.16;;;4.66;78.65
19761;BME280;10039;42.632;23.408;2023-12-22T08:47:32;93421.28;;;4.60;78.22
19761;BME280;10039;42.632;23.408;2023-12-22T08:49:58;93426.00;;;4.68;78.67
19761;BME280;10039;42.632;23.408;2023-12-22T08:52:24;93425.28;;;4.68;78.73
19761;BME280;10039;42.632;23.408;2023-12-22T08:54:50;93411.50;;;4.60;78.49
19761;BME280;10039;42.632;23.408;2023-12-22T08:57:15;93425.84;;;4.75;78.10
19761;BME280;10039;42.632;23.408;2023-12-22T08:59:41;93412.63;;;4.59;78.18
19761;BME280;10039;42.632;23.408;2023-12-22T09:02:06;93426.19;;;4.77;77.91
19761;BME280;10039;42.632;23.408;2023-12-22T09:04:32;93402.66;;;4.67;78.13
19761;BME280;10039;42.632;23.408;2023-12-22T09:06:57;93423.63;;;4.74;77.92
19761;BME280;10039;42.632;23.408;2023-12-22T09:09:23;93444.53;;;4.84;77.89
19761;BME280;10039;42.632;23.408;2023-12-22T09:11:49;93449.66;;;4.91;78.11
19761;BME280;10039;42.632;23.408;2023-12-22T09:14:15;93414.44;;;4.62;77.86
19761;BME280;10039;42.632;23.408;2023-12-22T09:16:41;93435.59;;;4.78;78.04
19761;BME280;10039;42.632;23.408;2023-12-22T09:19:08;93421.31;;;4.76;77.60
19761;BME280;10039;42.632;23.408;2023-12-22T09:21:33;93445.69;;;4.83;77.61
19761;BME280;10039;42.632;23.408;2023-12-22T09:23:59;93459.81;;;4.93;78.18
19761;BME280;10039;42.632;23.408;2023-12-22T09:26:24;93468.50;;;4.93;77.63
19761;BME280;10039;42.632;23.408;2023-12-22T09:28:50;93443.63;;;4.91;77.69
19761;BME280;10039;42.632;23.408;2023-12-22T09:31:15;93465.34;;;4.98;79.02
19761;BME280;10039;42.632;23.408;2023-12-22T09:33:42;93424.47;;;4.71;79.29
19761;BME280;10039;42.632;23.408;2023-12-22T09:36:08;93461.16;;;5.01;78.48
19761;BME280;10039;42.632;23.408;2023-12-22T09:38:34;93435.59;;;4.78;79.17
19761;BME280;10039;42.632;23.408;2023-12-22T09:41:02;93448.75;;;4.98;79.14
19761;BME280;10039;42.632;23.408;2023-12-22T09:43:29;93438.25;;;4.94;79.53
19761;BME280;10039;42.632;23.408;2023-12-22T09:45:55;93424.06;;;4.88;79.25
19761;BME280;10039;42.632;23.408;2023-12-22T09:48:22;93415.66;;;4.93;79.69
19761;BME280;10039;42.632;23.408;2023-12-22T09:50:53;93421.75;;;5.06;79.81
19761;BME280;10039;42.632;23.408;2023-12-22T09:53:20;93436.19;;;5.18;79.96
19761;BME280;10039;42.632;23.408;2023-12-22T09:55:46;93413.31;;;4.95;79.97
19761;BME280;10039;42.632;23.408;2023-12-22T09:58:13;93429.03;;;5.18;79.94
19761;BME280;10039;42.632;23.408;2023-12-22T10:00:40;93441.66;;;5.27;80.10
19761;BME280;10039;42.632;23.408;2023-12-22T10:03:07;93420.94;;;5.25;80.16
19761;BME280;10039;42.632;23.408;2023-12-22T10:05:33;93397.47;;;5.11;80.77
19761;BME280;10039;42.632;23.408;2023-12-22T10:08:00;93401.56;;;5.28;81.53
19761;BME280;10039;42.632;23.408;2023-12-22T10:10:30;93393.31;;;5.26;80.95
19761;BME280;10039;42.632;23.408;2023-12-22T10:12:59;93375.97;;;5.09;81.88
19761;BME280;10039;42.632;23.408;2023-12-22T10:15:25;93387.53;;;4.99;83.78
19761;BME280;10039;42.632;23.408;2023-12-22T10:17:52;93416.13;;;5.20;84.19
19761;BME280;10039;42.632;23.408;2023-12-22T10:20:19;93412.00;;;5.19;83.79
19761;BME280;10039;42.632;23.408;2023-12-22T10:22:44;93387.38;;;5.06;84.39
19761;BME280;10039;42.632;23.408;2023-12-22T10:25:10;93389.28;;;5.22;84.54
19761;BME280;10039;42.632;23.408;2023-12-22T10:27:36;93377.13;;;5.24;84.50
19761;BME280;10039;42.632;23.408;2023-12-22T10:30:03;93368.47;;;5.08;84.85
19761;BME280;10039;42.632;23.408;2023-12-22T10:32:29;93393.22;;;5.30;85.40
19761;BME280;10039;42.632;23.408;2023-12-22T10:34:56;93374.56;;;5.37;84.92
19761;BME280;10039;42.632;23.408;2023-12-22T10:37:24;93378.91;;;5.43;83.85
19761;BME280;10039;42.632;23.408;2023-12-22T10:39:54;93370.38;;;5.51;83.68
19761;BME280;10039;42.632;23.408;2023-12-22T10:42:20;93373.28;;;5.57;83.85
19761;BME280;10039;42.632;23.408;2023-12-22T10:44:46;93366.59;;;5.65;83.98
19761;BME280;10039;42.632;23.408;2023-12-22T10:47:11;93330.66;;;5.39;83.31
19761;BME280;10039;42.632;23.408;2023-12-22T10:49:37;93362.34;;;5.55;84.24
19761;BME280;10039;42.632;23.408;2023-12-22T10:52:03;93325.34;;;5.39;84.12
19761;BME280;10039;42.632;23.408;2023-12-22T10:54:31;93323.50;;;5.52;83.21
19761;BME280;10039;42.632;23.408;2023-12-22T10:57:00;93304.09;;;5.43;83.28
19761;BME280;10039;42.632;23.408;2023-12-22T10:59:29;93302.22;;;5.43;83.33
19761;BME280;10039;42.632;23.408;2023-12-22T11:01:57;93332.72;;;5.60;83.46
19761;BME280;10039;42.632;23.408;2023-12-22T11:04:28;93314.94;;;5.48;84.73
19761;BME280;10039;42.632;23.408;2023-12-22T11:06:57;93310.31;;;5.36;84.96
19761;BME280;10039;42.632;23.408;2023-12-22T11:09:26;93307.66;;;5.52;85.38
19761;BME280;10039;42.632;23.408;2023-12-22T11:11:52;93312.72;;;5.59;85.38
19761;BME280;10039;42.632;23.408;2023-12-22T11:14:19;93289.88;;;5.65;85.48
19761;BME280;10039;42.632;23.408;2023-12-22T11:16:46;93295.94;;;5.65;84.84
19761;BME280;10039;42.632;23.408;2023-12-22T11:19:14;93298.19;;;5.79;84.87
19761;BME280;10039;42.632;23.408;2023-12-22T11:21:40;93282.25;;;5.83;85.05
19761;BME280;10039;42.632;23.408;2023-12-22T11:24:07;93280.13;;;5.90;84.43
19761;BME280;10039;42.632;23.408;2023-12-22T11:26:33;93270.50;;;5.84;84.08
19761;BME280;10039;42.632;23.408;2023-12-22T11:28:59;93284.38;;;6.00;83.58
19761;BME280;10039;42.632;23.408;2023-12-22T11:31:26;93290.72;;;6.03;83.58
19761;BME280;10039;42.632;23.408;2023-12-22T11:33:54;93273.03;;;6.00;83.06
19761;BME280;10039;42.632;23.408;2023-12-22T11:36:22;93295.63;;;6.17;83.12
19761;BME280;10039;42.632;23.408;2023-12-22T11:38:48;93294.13;;;6.16;83.31
19761;BME280;10039;42.632;23.408;2023-12-22T11:41:24;93319.75;;;6.19;83.54
19761;BME280;10039;42.632;23.408;2023-12-22T11:43:51;93311.19;;;6.15;83.60
19761;BME280;10039;42.632;23.408;2023-12-22T11:46:18;93308.84;;;6.17;84.00
19761;BME280;10039;42.632;23.408;2023-12-22T11:48:48;93302.28;;;6.09;83.84
19761;BME280;10039;42.632;23.408;2023-12-22T11:51:15;93336.72;;;6.34;83.91
19761;BME280;10039;42.632;23.408;2023-12-22T11:53:41;93337.44;;;6.22;83.91
19761;BME280;10039;42.632;23.408;2023-12-22T11:56:08;93339.56;;;6.27;84.20
19761;BME280;10039;42.632;23.408;2023-12-22T11:58:46;93325.69;;;6.23;84.10
19761;BME280;10039;42.632;23.408;2023-12-22T12:01:21;93315.41;;;6.12;85.16
19761;BME280;10039;42.632;23.408;2023-12-22T12:03:58;93289.75;;;5.97;85.38
19761;BME280;10039;42.632;23.408;2023-12-22T12:09:00;93317.97;;;6.16;86.41
19761;BME280;10039;42.632;23.408;2023-12-22T12:14:40;93319.00;;;6.06;86.16
19761;BME280;10039;42.632;23.408;2023-12-22T12:17:08;93351.88;;;6.21;86.50
19761;BME280;10039;42.632;23.408;2023-12-22T12:19:43;93342.63;;;6.13;86.12
19761;BME280;10039;42.632;23.408;2023-12-22T12:22:14;93338.06;;;6.13;86.23
19761;BME280;10039;42.632;23.408;2023-12-22T12:24:41;93348.34;;;6.24;85.90
19761;BME280;10039;42.632;23.408;2023-12-22T12:27:07;93341.69;;;6.32;85.39
19761;BME280;10039;42.632;23.408;2023-12-22T12:29:33;93319.66;;;6.35;83.61
19761;BME280;10039;42.632;23.408;2023-12-22T12:32:05;93284.69;;;6.15;83.14
19761;BME280;10039;42.632;23.408;2023-12-22T12:34:31;93271.47;;;6.15;79.88
19761;BME280;10039;42.632;23.408;2023-12-22T12:36:58;93278.44;;;6.09;77.43
19761;BME280;10039;42.632;23.408;2023-12-22T12:39:24;93294.97;;;6.13;76.42
19761;BME280;10039;42.632;23.408;2023-12-22T12:41:59;93271.13;;;6.13;75.85
19761;BME280;10039;42.632;23.408;2023-12-22T12:44:25;93259.59;;;6.19;75.34
19761;BME280;10039;42.632;23.408;2023-12-22T12:46:52;93265.84;;;6.25;75.62
19761;BME280;10039;42.632;23.408;2023-12-22T12:49:18;93262.44;;;6.25;75.47
19761;BME280;10039;42.632;23.408;2023-12-22T12:51:46;93248.25;;;6.31;74.33
19761;BME280;10039;42.632;23.408;2023-12-22T12:54:13;93246.34;;;6.32;73.12
19761;BME280;10039;42.632;23.408;2023-12-22T12:56:46;93254.72;;;6.30;72.45
19761;BME280;10039;42.632;23.408;2023-12-22T12:59:14;93293.06;;;6.51;72.86
19761;BME280;10039;42.632;23.408;2023-12-22T13:01:48;93282.66;;;6.56;73.25
19761;BME280;10039;42.632;23.408;2023-12-22T13:04:14;93277.69;;;6.46;71.96
19761;BME280;10039;42.632;23.408;2023-12-22T13:06:46;93316.25;;;6.71;71.66
19761;BME280;10039;42.632;23.408;2023-12-22T13:09:12;93320.81;;;6.59;71.71